Map

Track Data

SID SEASON NUMBER BASIN SUBBASIN NAME ISO_TIME NATURE LAT LON WMO_WIND WMO_PRES WMO_AGENCY TRACK_TYPE DIST2LAND LANDFALL IFLAG USA_AGENCY USA_ATCF_ID USA_LAT USA_LON USA_RECORD USA_STATUS USA_WIND USA_PRES USA_SSHS USA_R34_NE USA_R34_SE USA_R34_SW USA_R34_NW USA_R50_NE USA_R50_SE USA_R50_SW USA_R50_NW USA_R64_NE USA_R64_SE USA_R64_SW USA_R64_NW USA_POCI USA_ROCI USA_RMW USA_EYE TOKYO_LAT TOKYO_LON TOKYO_GRADE TOKYO_WIND TOKYO_PRES TOKYO_R50_DIR TOKYO_R50_LONG TOKYO_R50_SHORT TOKYO_R30_DIR TOKYO_R30_LONG TOKYO_R30_SHORT TOKYO_LAND CMA_LAT CMA_LON CMA_CAT CMA_WIND CMA_PRES HKO_LAT HKO_LON HKO_CAT HKO_WIND HKO_PRES NEWDELHI_LAT NEWDELHI_LON NEWDELHI_GRADE NEWDELHI_WIND NEWDELHI_PRES NEWDELHI_CI NEWDELHI_DP NEWDELHI_POCI REUNION_LAT REUNION_LON REUNION_TYPE REUNION_WIND REUNION_PRES REUNION_TNUM REUNION_CI REUNION_RMW REUNION_R34_NE REUNION_R34_SE REUNION_R34_SW REUNION_R34_NW REUNION_R50_NE REUNION_R50_SE REUNION_R50_SW REUNION_R50_NW REUNION_R64_NE REUNION_R64_SE REUNION_R64_SW REUNION_R64_NW BOM_LAT BOM_LON BOM_TYPE BOM_WIND BOM_PRES BOM_TNUM BOM_CI BOM_RMW BOM_R34_NE BOM_R34_SE BOM_R34_SW BOM_R34_NW BOM_R50_NE BOM_R50_SE BOM_R50_SW BOM_R50_NW BOM_R64_NE BOM_R64_SE BOM_R64_SW BOM_R64_NW BOM_ROCI BOM_POCI BOM_EYE BOM_POS_METHOD BOM_PRES_METHOD NADI_LAT NADI_LON NADI_CAT NADI_WIND NADI_PRES WELLINGTON_LAT WELLINGTON_LON WELLINGTON_WIND WELLINGTON_PRES DS824_LAT DS824_LON DS824_STAGE DS824_WIND DS824_PRES TD9636_LAT TD9636_LON TD9636_STAGE TD9636_WIND TD9636_PRES TD9635_LAT TD9635_LON TD9635_WIND TD9635_PRES TD9635_ROCI NEUMANN_LAT NEUMANN_LON NEUMANN_CLASS NEUMANN_WIND NEUMANN_PRES MLC_LAT MLC_LON MLC_CLASS MLC_WIND MLC_PRES USA_GUST BOM_GUST BOM_GUST_PER REUNION_GUST REUNION_GUST_PER USA_SEAHGT USA_SEARAD_NE USA_SEARAD_SE USA_SEARAD_SW USA_SEARAD_NW STORM_SPEED STORM_DIR
1997222N11246 1997 65 EP MM HILDA 1997-08-10 00:00:00 TS 10.5000 -114.400 30 1007 hurdat_epa main 1417 1401 O_____________ hurdat_epa EP101997 10.5000 -114.400 TD 30 1007 -1 5 0
1997222N11246 1997 65 EP MM HILDA 1997-08-10 03:00:00 TS 10.7475 -114.395 main 1401 1377 P_____________ EP101997 10.7475 -114.395 TD 30 1006 -1 5 358
1997222N11246 1997 65 EP MM HILDA 1997-08-10 06:00:00 TS 11.0000 -114.400 30 1005 hurdat_epa main 1377 1361 O_____________ hurdat_epa EP101997 11.0000 -114.400 TD 30 1005 -1 5 356
1997222N11246 1997 65 EP MM HILDA 1997-08-10 09:00:00 TS 11.2575 -114.428 main 1353 1346 P_____________ EP101997 11.2575 -114.428 TD 30 1005 -1 5 349
1997222N11246 1997 65 EP MM HILDA 1997-08-10 12:00:00 TS 11.5000 -114.500 30 1005 hurdat_epa main 1346 1338 O_____________ hurdat_epa EP101997 11.5000 -114.500 TD 30 1005 -1 5 336
1997222N11246 1997 65 EP MM HILDA 1997-08-10 15:00:00 TS 11.7150 -114.628 main 1338 1327 P_____________ EP101997 11.7150 -114.628 TD 30 1005 -1 5 324
1997222N11246 1997 65 EP MM HILDA 1997-08-10 18:00:00 TS 11.9000 -114.800 30 1005 hurdat_epa main 1331 1319 O_____________ hurdat_epa EP101997 11.9000 -114.800 TD 30 1005 -1 5 315
1997222N11246 1997 65 EP MM HILDA 1997-08-10 21:00:00 TS 12.0650 -114.993 main 1319 1313 P_____________ EP101997 12.0650 -114.993 TD 30 1005 -1 5 308
1997222N11246 1997 65 EP MM HILDA 1997-08-11 00:00:00 TS 12.2000 -115.200 30 1005 hurdat_epa main 1317 1311 O_____________ hurdat_epa EP101997 12.2000 -115.200 TD 30 1005 -1 5 301
1997222N11246 1997 65 EP MM HILDA 1997-08-11 03:00:00 TS 12.3000 -115.393 main 1316 1311 P_____________ EP101997 12.3000 -115.393 TD 30 1005 -1 4 297
1997222N11246 1997 65 EP MM HILDA 1997-08-11 06:00:00 TS 12.4000 -115.600 30 1005 hurdat_epa main 1315 1310 O_____________ hurdat_epa EP101997 12.4000 -115.600 TD 30 1005 -1 5 300
1997222N11246 1997 65 EP MM HILDA 1997-08-11 09:00:00 TS 12.5499 -115.827 main 1315 1305 P_____________ EP101997 12.5499 -115.827 TD 30 1005 -1 6 302
1997222N11246 1997 65 EP MM HILDA 1997-08-11 12:00:00 TS 12.7000 -116.100 30 1005 hurdat_epa main 1310 1306 O_____________ hurdat_epa EP101997 12.7000 -116.100 TD 30 1005 -1 6 294
1997222N11246 1997 65 EP MM HILDA 1997-08-11 15:00:00 TS 12.8150 -116.428 main 1316 1316 P_____________ EP101997 12.8150 -116.428 TD 32 1005 -1 7 286
1997222N11246 1997 65 EP MM HILDA 1997-08-11 18:00:00 TS 12.9000 -116.800 35 1005 hurdat_epa main 1329 1329 O_____________ hurdat_epa EP101997 12.9000 -116.800 TS 35 1005 0 8 281
1997222N11246 1997 65 EP MM HILDA 1997-08-11 21:00:00 TS 12.9575 -117.193 main 1343 1343 P_____________ EP101997 12.9575 -117.193 TS 37 1004 0 8 277
1997222N11246 1997 65 EP MM HILDA 1997-08-12 00:00:00 TS 13.0000 -117.600 40 1004 hurdat_epa main 1367 1367 O_____________ hurdat_epa EP101997 13.0000 -117.600 TS 40 1004 0 8 277
1997222N11246 1997 65 EP MM HILDA 1997-08-12 03:00:00 TS 13.0574 -117.992 main 1384 1384 P_____________ EP101997 13.0574 -117.992 TS 42 1003 0 8 277
1997222N11246 1997 65 EP MM HILDA 1997-08-12 06:00:00 TS 13.1000 -118.400 45 1002 hurdat_epa main 1410 1410 O_____________ hurdat_epa EP101997 13.1000 -118.400 TS 45 1002 0 8 272
1997222N11246 1997 65 EP MM HILDA 1997-08-12 09:00:00 TS 13.0924 -118.835 main 1437 1437 P_____________ EP101997 13.0924 -118.835 TS 45 1001 0 9 270
1997222N11246 1997 65 EP MM HILDA 1997-08-12 12:00:00 TS 13.1000 -119.300 45 1000 hurdat_epa main 1471 1471 O_____________ hurdat_epa EP101997 13.1000 -119.300 TS 45 1000 0 9 274
1997222N11246 1997 65 EP MM HILDA 1997-08-12 15:00:00 TS 13.1625 -119.800 main 1499 1499 P_____________ EP101997 13.1625 -119.800 TS 45 1000 0 10 282
1997222N11246 1997 65 EP MM HILDA 1997-08-12 18:00:00 TS 13.3000 -120.300 45 1000 hurdat_epa main 1528 1527 O_____________ hurdat_epa EP101997 13.3000 -120.300 TS 45 1000 0 10 292
1997222N11246 1997 65 EP MM HILDA 1997-08-12 21:00:00 TS 13.5424 -120.757 main 1549 1540 P_____________ EP101997 13.5424 -120.757 TS 45 1000 0 10 300
1997222N11246 1997 65 EP MM HILDA 1997-08-13 00:00:00 TS 13.8000 -121.200 45 1001 hurdat_epa main 1547 1545 O_____________ hurdat_epa EP101997 13.8000 -121.200 TS 45 1001 0 10 296
1997222N11246 1997 65 EP MM HILDA 1997-08-13 03:00:00 TS 13.9725 -121.665 main 1562 1562 P_____________ EP101997 13.9725 -121.665 TS 45 1001 0 9 289
1997222N11246 1997 65 EP MM HILDA 1997-08-13 06:00:00 TS 14.1000 -122.100 45 1001 hurdat_epa main 1581 1581 O_____________ hurdat_epa EP101997 14.1000 -122.100 TS 45 1001 0 8 286
1997222N11246 1997 65 EP MM HILDA 1997-08-13 09:00:00 TS 14.1998 -122.458 main 1601 1599 P_____________ EP101997 14.1998 -122.458 TS 42 1001 0 7 286
1997222N11246 1997 65 EP MM HILDA 1997-08-13 12:00:00 TS 14.3000 -122.800 40 1002 hurdat_epa main 1614 1614 O_____________ hurdat_epa EP101997 14.3000 -122.800 TS 40 1002 0 7 288
1997222N11246 1997 65 EP MM HILDA 1997-08-13 15:00:00 TS 14.4197 -123.155 main 1635 1627 P_____________ EP101997 14.4197 -123.155 TS 40 1002 0 8 291
1997222N11246 1997 65 EP MM HILDA 1997-08-13 18:00:00 TS 14.6000 -123.600 40 1003 hurdat_epa main 1649 1648 O_____________ hurdat_epa EP101997 14.6000 -123.600 TS 40 1003 0 11 295
1997222N11246 1997 65 EP MM HILDA 1997-08-13 21:00:00 TS 14.8926 -124.212 main 1671 1671 P_____________ EP101997 14.8926 -124.212 TS 37 1003 0 14 296
1997222N11246 1997 65 EP MM HILDA 1997-08-14 00:00:00 TS 15.2000 -124.900 35 1004 hurdat_epa main 1704 1704 O_____________ hurdat_epa EP101997 15.2000 -124.900 TS 35 1004 0 14 292
1997222N11246 1997 65 EP MM HILDA 1997-08-14 03:00:00 TS 15.4072 -125.543 main 1739 1739 P_____________ EP101997 15.4072 -125.543 TS 32 1004 -1 13 288
1997222N11246 1997 65 EP MM HILDA 1997-08-14 06:00:00 TS 15.6000 -126.200 30 1004 hurdat_epa main 1778 1778 O_____________ hurdat_epa EP101997 15.6000 -126.200 TD 30 1004 -1 14 289
1997222N11246 1997 65 EP MM HILDA 1997-08-14 09:00:00 TS 15.8498 -126.892 main 1808 1800 P_____________ EP101997 15.8498 -126.893 TD 30 1004 -1 14 290
1997222N11246 1997 65 EP MM HILDA 1997-08-14 12:00:00 TS 16.1000 -127.600 30 1005 hurdat_epa main 1833 1833 O_____________ hurdat_epa EP101997 16.1000 -127.600 TD 30 1005 -1 14 288
1997222N11246 1997 65 EP MM HILDA 1997-08-14 15:00:00 TS 16.2849 -128.315 main 1868 1868 P_____________ EP101997 16.2849 -128.315 TD 27 1005 -1 14 287
1997222N11246 1997 65 EP MM HILDA 1997-08-14 18:00:00 TS 16.5000 -129.000 25 1006 hurdat_epa main 1906 1906 O_____________ hurdat_epa EP101997 16.5000 -129.000 TD 25 1006 -1 14 293
1997222N11246 1997 65 EP MM HILDA 1997-08-14 21:00:00 TS 16.8177 -129.619 main 1931 1931 P_____________ EP101997 16.8177 -129.619 TD 25 1006 -1 13 301
1997222N11246 1997 65 EP MM HILDA 1997-08-15 00:00:00 TS 17.2000 -130.200 25 1007 hurdat_epa main 1950 O_____________ hurdat_epa EP101997 17.2000 -130.200 TD 25 1007 -1 14 305

About IBTrACS Database

This database is a web-friendly format of International Best Track Archive for Climate Stewardship (IBTrACS), a global best track data archive curated by NOAA dating back to 1842.

Updated: 2021-11-26